createdAt,value
2023-04-25T00:02:04.303Z,15.52
2023-04-25T00:04:31.353Z,13.95
2023-04-25T00:07:02.382Z,12.68
2023-04-25T00:09:29.147Z,12.80
2023-04-25T00:11:55.866Z,7.75
2023-04-25T00:14:23.829Z,14.88
2023-04-25T00:16:52.656Z,16.67
2023-04-25T00:19:19.260Z,16.35
2023-04-25T00:21:47.110Z,9.85
2023-04-25T00:24:14.743Z,13.77
2023-04-25T00:26:41.324Z,16.38
2023-04-25T00:29:07.991Z,13.13
2023-04-25T00:31:34.683Z,13.27
2023-04-25T00:34:01.323Z,13.23
2023-04-25T00:36:28.540Z,13.45
2023-04-25T00:38:55.988Z,15.88
2023-04-25T00:41:22.755Z,10.60
2023-04-25T00:43:52.135Z,9.10
2023-04-25T00:46:19.007Z,13.13
2023-04-25T00:48:45.605Z,13.82
2023-04-25T00:51:20.010Z,14.90
2023-04-25T00:53:48.418Z,13.48
2023-04-25T00:56:15.441Z,13.48
2023-04-25T00:58:43.583Z,9.00
2023-04-25T01:01:11.719Z,12.52
2023-04-25T01:03:43.869Z,13.00
2023-04-25T01:06:11.607Z,13.57
2023-04-25T01:08:39.694Z,17.40
2023-04-25T01:11:07.409Z,19.25
2023-04-25T01:13:35.640Z,11.52
2023-04-25T01:16:03.553Z,14.60
2023-04-25T01:18:30.279Z,12.18
2023-04-25T01:21:07.438Z,15.27
2023-04-25T01:23:36.753Z,16.75
2023-04-25T01:26:04.908Z,11.43
2023-04-25T01:28:32.203Z,13.18
2023-04-25T01:30:58.941Z,16.98
2023-04-25T01:33:26.018Z,20.83
2023-04-25T01:35:52.935Z,17.40
2023-04-25T01:38:20.525Z,18.17
2023-04-25T01:40:50.971Z,15.38
2023-04-25T01:43:19.805Z,18.50
2023-04-25T01:45:46.940Z,17.65
2023-04-25T01:48:15.030Z,17.55
2023-04-25T01:50:45.282Z,17.98
2023-04-25T01:53:14.436Z,14.82
2023-04-25T01:55:43.046Z,17.23
2023-04-25T01:58:14.213Z,18.95
2023-04-25T02:00:56.829Z,13.88
2023-04-25T02:03:26.986Z,19.52
2023-04-25T02:05:54.596Z,20.25
2023-04-25T02:08:21.602Z,15.70
2023-04-25T02:10:48.268Z,18.58
2023-04-25T02:13:18.219Z,14.32
2023-04-25T02:15:50.922Z,14.05
2023-04-25T02:18:22.216Z,14.63
2023-04-25T02:20:48.992Z,21.42
2023-04-25T02:23:20.085Z,14.65
2023-04-25T02:25:46.729Z,20.60
2023-04-25T02:28:14.337Z,15.85
2023-04-25T02:30:40.962Z,10.55
2023-04-25T02:33:07.652Z,11.88
2023-04-25T02:35:36.359Z,11.50
2023-04-25T02:38:04.923Z,12.82
2023-04-25T02:40:33.417Z,15.63
2023-04-25T02:43:01.126Z,16.55
2023-04-25T02:45:27.746Z,16.75
2023-04-25T02:47:54.391Z,20.00
2023-04-25T02:50:21.164Z,14.65
2023-04-25T02:52:47.868Z,12.48
2023-04-25T02:55:18.883Z,8.25
2023-04-25T02:57:46.338Z,12.10
2023-04-25T03:00:19.613Z,15.93
2023-04-25T03:02:46.532Z,11.23
2023-04-25T03:05:13.314Z,13.23
2023-04-25T03:07:40.483Z,18.75
2023-04-25T03:10:08.244Z,15.65
2023-04-25T03:12:36.135Z,13.00
2023-04-25T03:15:04.987Z,14.80
2023-04-25T03:17:31.736Z,12.63
2023-04-25T03:19:59.032Z,12.02
2023-04-25T03:22:26.235Z,13.60
2023-04-25T03:24:53.981Z,12.57
2023-04-25T03:27:21.035Z,13.43
2023-04-25T03:29:47.712Z,12.85
2023-04-25T03:32:14.370Z,14.82
2023-04-25T03:34:41.082Z,14.45
2023-04-25T03:37:07.827Z,18.05
2023-04-25T03:39:39.354Z,15.90
2023-04-25T03:42:07.031Z,14.23
2023-04-25T03:44:34.112Z,17.33
2023-04-25T03:47:01.522Z,14.23
2023-04-25T03:49:28.288Z,10.23
2023-04-25T03:51:58.732Z,15.05
2023-04-25T03:54:25.554Z,14.40
2023-04-25T03:57:16.482Z,9.90
2023-04-25T03:59:43.711Z,11.38
2023-04-25T04:02:12.351Z,10.73
2023-04-25T04:04:40.438Z,9.65
2023-04-25T04:07:07.456Z,22.60
2023-04-25T04:09:36.867Z,12.55
2023-04-25T04:12:08.091Z,12.23
2023-04-25T04:14:36.247Z,15.90
2023-04-25T04:17:03.161Z,13.38
2023-04-25T04:19:30.414Z,13.93
2023-04-25T04:22:10.980Z,12.98
2023-04-25T04:24:39.058Z,17.27
2023-04-25T04:27:07.736Z,16.95
2023-04-25T04:29:37.612Z,15.50
2023-04-25T04:32:14.696Z,13.38
2023-04-25T04:34:42.160Z,15.20
2023-04-25T04:37:09.193Z,18.33
2023-04-25T04:39:36.849Z,18.90
2023-04-25T04:42:30.186Z,22.75
2023-04-25T04:45:26.182Z,12.85
2023-04-25T04:48:07.001Z,15.00
2023-04-25T04:50:36.585Z,12.47
2023-04-25T04:53:21.832Z,15.43
2023-04-25T04:56:15.540Z,16.90
2023-04-25T04:58:51.725Z,17.33
2023-04-25T05:01:41.586Z,26.70
2023-04-25T05:04:21.068Z,18.58
2023-04-25T05:07:05.800Z,16.33
2023-04-25T05:09:32.353Z,18.30
2023-04-25T05:12:10.229Z,18.73
2023-04-25T05:14:36.799Z,20.45
2023-04-25T05:19:55.240Z,19.23
2023-04-25T05:22:34.398Z,22.02
2023-04-25T05:25:13.944Z,18.17
2023-04-25T05:27:49.606Z,22.95
2023-04-25T05:30:36.210Z,17.90
2023-04-25T05:33:10.175Z,21.08
2023-04-25T05:35:36.981Z,22.65
2023-04-25T05:38:03.603Z,18.48
2023-04-25T05:40:52.962Z,15.75
2023-04-25T05:43:48.079Z,17.77
2023-04-25T05:46:35.379Z,17.30
2023-04-25T05:49:12.987Z,19.48
2023-04-25T05:51:56.706Z,16.23
2023-04-25T05:54:52.716Z,13.05
2023-04-25T05:57:24.981Z,23.13
2023-04-25T05:59:53.112Z,13.02
2023-04-25T06:02:22.343Z,15.43
2023-04-25T06:04:52.297Z,13.30
2023-04-25T06:07:22.078Z,12.93
2023-04-25T06:09:48.915Z,16.17
2023-04-25T06:12:15.862Z,13.90
2023-04-25T06:14:42.599Z,12.82
2023-04-25T06:17:09.463Z,9.52
2023-04-25T06:19:39.170Z,10.85
2023-04-25T06:22:06.112Z,15.15
2023-04-25T06:24:33.997Z,14.38
2023-04-25T06:27:03.656Z,15.57
2023-04-25T06:29:30.301Z,15.77
2023-04-25T06:31:58.268Z,14.77
2023-04-25T06:34:25.120Z,12.98
2023-04-25T06:36:51.765Z,13.43
2023-04-25T06:39:21.074Z,10.23
2023-04-25T06:41:49.392Z,13.88
2023-04-25T06:44:36.960Z,10.25
2023-04-25T06:47:07.419Z,7.40
2023-04-25T06:49:34.219Z,14.38
2023-04-25T06:52:01.737Z,9.13
2023-04-25T06:54:30.406Z,9.30
2023-04-25T06:57:04.404Z,9.23
2023-04-25T06:59:33.797Z,11.00
2023-04-25T07:02:01.593Z,12.25
2023-04-25T07:04:28.451Z,16.83
2023-04-25T07:06:57.362Z,9.95
2023-04-25T07:09:34.853Z,12.93
2023-04-25T07:12:02.639Z,9.98
2023-04-25T07:14:30.947Z,12.75
2023-04-25T07:16:58.355Z,10.88
2023-04-25T07:19:27.616Z,7.90
2023-04-25T07:21:57.456Z,8.95
2023-04-25T07:24:24.158Z,7.47
2023-04-25T07:26:52.243Z,9.25
2023-04-25T07:29:29.319Z,8.88
2023-04-25T07:31:59.157Z,9.63
2023-04-25T07:34:25.908Z,10.60
2023-04-25T07:36:53.549Z,8.00
2023-04-25T07:39:21.472Z,11.02
2023-04-25T07:41:48.327Z,8.32
2023-04-25T07:44:20.912Z,7.32
2023-04-25T07:46:47.606Z,9.65
2023-04-25T07:49:15.710Z,10.63
2023-04-25T07:51:44.492Z,8.15
2023-04-25T07:54:15.627Z,6.30
2023-04-25T07:56:52.635Z,9.25
2023-04-25T07:59:42.183Z,7.20
2023-04-25T08:02:08.741Z,8.00
2023-04-25T08:04:36.028Z,8.35
2023-04-25T08:07:05.037Z,7.57
2023-04-25T08:09:39.336Z,7.32
2023-04-25T08:12:10.752Z,13.38
2023-04-25T08:14:38.153Z,8.73
2023-04-25T08:17:06.121Z,8.88
2023-04-25T08:19:39.069Z,7.07
2023-04-25T08:22:06.929Z,7.45
2023-04-25T08:24:43.818Z,5.47
2023-04-25T08:27:12.026Z,5.97
2023-04-25T08:29:38.678Z,11.05
2023-04-25T08:32:05.971Z,5.93
2023-04-25T08:34:34.558Z,5.57
2023-04-25T08:37:05.391Z,6.90
2023-04-25T08:39:40.707Z,6.15
2023-04-25T08:42:22.692Z,7.03
2023-04-25T08:44:51.056Z,11.73
2023-04-25T08:47:22.585Z,6.20
2023-04-25T08:49:54.757Z,7.35
2023-04-25T08:52:28.535Z,8.98
2023-04-25T08:54:56.358Z,11.45
2023-04-25T08:57:24.296Z,8.40
2023-04-25T08:59:53.680Z,8.57
2023-04-25T09:02:21.834Z,10.52
2023-04-25T09:04:50.772Z,7.43
2023-04-25T09:07:19.809Z,6.45
2023-04-25T09:09:46.601Z,7.50
2023-04-25T09:12:20.066Z,6.32
2023-04-25T09:15:10.364Z,5.50
2023-04-25T09:18:04.466Z,10.50
2023-04-25T09:20:59.562Z,4.78
2023-04-25T09:34:21.710Z,8.10
2023-04-25T09:38:06.822Z,4.03
2023-04-25T09:44:34.608Z,5.70
2023-04-25T09:55:28.796Z,6.88
2023-04-25T09:59:11.143Z,3.30
2023-04-25T10:06:40.500Z,5.47
2023-04-25T11:27:58.794Z,4.50
2023-04-25T11:30:27.185Z,4.75
2023-04-25T11:32:54.538Z,7.13
2023-04-25T11:35:24.013Z,6.95
2023-04-25T11:37:51.182Z,4.43
2023-04-25T11:40:18.925Z,2.75
2023-04-25T11:42:47.827Z,9.25
2023-04-25T11:45:15.604Z,6.03
2023-04-25T11:47:42.401Z,5.97
2023-04-25T11:50:09.748Z,11.55
2023-04-25T11:52:44.682Z,6.55
2023-04-25T11:55:19.451Z,6.63
2023-04-25T11:57:49.668Z,4.68
2023-04-25T12:00:19.434Z,3.42
2023-04-25T12:02:53.522Z,4.72
2023-04-25T12:05:32.113Z,5.53
2023-04-25T12:08:16.290Z,4.78
2023-04-25T12:10:44.719Z,4.35
2023-04-25T12:13:22.191Z,5.32
2023-04-25T12:15:48.982Z,4.00
2023-04-25T12:18:15.653Z,2.78
2023-04-25T12:20:42.683Z,9.70
2023-04-25T12:23:09.450Z,4.32
2023-04-25T12:25:44.392Z,4.22
2023-04-25T12:28:21.141Z,5.38
2023-04-25T12:30:58.864Z,5.00
2023-04-25T12:33:27.053Z,12.98
2023-04-25T12:35:55.045Z,7.32
2023-04-25T12:38:26.574Z,5.60
2023-04-25T12:40:54.301Z,8.38
2023-04-25T12:43:22.272Z,3.67
2023-04-25T12:45:56.146Z,6.95
2023-04-25T12:48:23.353Z,3.70
2023-04-25T12:50:51.551Z,4.05
2023-04-25T12:53:19.814Z,5.75
2023-04-25T12:55:49.397Z,6.22
2023-04-25T12:58:20.901Z,5.43
2023-04-25T13:00:47.713Z,8.52
2023-04-25T13:03:14.514Z,3.58
2023-04-25T13:05:42.029Z,3.38
2023-04-25T13:08:08.956Z,9.88
2023-04-25T13:10:36.936Z,8.07
2023-04-25T13:13:03.615Z,8.18
2023-04-25T13:15:30.354Z,5.38
2023-04-25T13:17:57.069Z,14.63
2023-04-25T13:20:23.998Z,5.50
2023-04-25T13:22:50.787Z,5.40
2023-04-25T13:25:17.496Z,3.95
2023-04-25T13:27:45.241Z,4.93
2023-04-25T13:30:12.417Z,3.88
2023-04-25T13:32:39.490Z,4.15
2023-04-25T13:35:10.508Z,3.38
2023-04-25T13:37:37.787Z,5.53
2023-04-25T13:40:10.744Z,4.85
2023-04-25T13:42:38.338Z,3.83
2023-04-25T13:45:05.409Z,4.18
2023-04-25T13:47:32.015Z,6.00
2023-04-25T13:49:58.589Z,3.67
2023-04-25T13:52:25.398Z,4.25
2023-04-25T13:54:52.168Z,3.67
2023-04-25T13:57:19.350Z,2.88
2023-04-25T13:59:46.978Z,7.68
2023-04-25T14:02:13.773Z,3.85
2023-04-25T14:04:40.388Z,4.13
2023-04-25T14:07:07.048Z,2.40
2023-04-25T14:09:33.684Z,7.20
2023-04-25T14:12:00.459Z,6.63
2023-04-25T14:14:27.072Z,4.10
2023-04-25T14:16:55.087Z,10.00
2023-04-25T14:19:22.547Z,4.15
2023-04-25T14:21:49.146Z,8.38
2023-04-25T14:24:16.788Z,7.88
2023-04-25T14:26:44.098Z,6.63
2023-04-25T14:29:12.783Z,4.22
2023-04-25T14:31:41.301Z,5.97
2023-04-25T14:34:09.109Z,1.40
2023-04-25T14:36:37.302Z,3.88
2023-04-25T14:39:06.128Z,4.15
2023-04-25T14:41:33.234Z,4.32
2023-04-25T14:43:59.813Z,4.75
2023-04-25T14:46:27.041Z,7.45
2023-04-25T14:48:54.241Z,4.57
2023-04-25T14:51:21.128Z,5.22
2023-04-25T14:53:47.850Z,5.18
2023-04-25T14:56:14.528Z,4.03
2023-04-25T14:58:41.600Z,3.50
2023-04-25T15:01:09.231Z,1.85
2023-04-25T15:03:36.299Z,4.70
2023-04-25T15:06:03.055Z,6.03
2023-04-25T15:08:29.562Z,6.25
2023-04-25T15:10:56.136Z,6.80
2023-04-25T15:13:22.953Z,7.00
2023-04-25T15:15:52.190Z,4.53
2023-04-25T15:18:24.517Z,2.30
2023-04-25T15:20:54.378Z,5.75
2023-04-25T15:23:22.351Z,6.75
2023-04-25T15:25:51.449Z,3.13
2023-04-25T15:28:18.016Z,3.45
2023-04-25T15:30:45.668Z,5.68
2023-04-25T15:33:12.246Z,2.53
2023-04-25T15:35:38.778Z,6.57
2023-04-25T15:38:05.592Z,3.55
2023-04-25T15:40:32.241Z,4.22
2023-04-25T15:42:59.551Z,3.33
2023-04-25T15:45:26.856Z,6.05
2023-04-25T15:47:55.709Z,8.30
2023-04-25T15:50:23.367Z,6.03
2023-04-25T15:52:50.930Z,7.05
2023-04-25T15:55:19.548Z,5.78
2023-04-25T15:57:46.360Z,5.30
2023-04-25T16:00:15.088Z,3.28
2023-04-25T16:02:43.198Z,6.07
2023-04-25T16:05:11.477Z,7.63
2023-04-25T16:07:39.549Z,4.88
2023-04-25T16:10:06.542Z,5.18
2023-04-25T16:12:33.182Z,5.15
2023-04-25T16:14:59.866Z,3.78
2023-04-25T16:17:29.435Z,6.07
2023-04-25T16:19:56.879Z,5.80
2023-04-25T16:22:23.595Z,5.82
2023-04-25T16:24:50.576Z,4.35
2023-04-25T16:27:17.296Z,5.03
2023-04-25T16:29:43.866Z,5.55
2023-04-25T16:32:10.969Z,7.07
2023-04-25T16:34:37.507Z,5.45
2023-04-25T16:37:04.519Z,5.45
2023-04-25T16:39:31.110Z,4.57
2023-04-25T16:41:57.615Z,6.40
2023-04-25T16:44:24.161Z,6.47
2023-04-25T16:46:50.773Z,5.93
2023-04-25T16:49:17.364Z,8.15
2023-04-25T16:51:44.032Z,5.95
2023-04-25T16:54:10.635Z,10.57
2023-04-25T16:56:37.290Z,9.60
2023-04-25T16:59:03.855Z,11.40
2023-04-25T17:01:31.187Z,12.43
2023-04-25T17:03:57.973Z,5.75
2023-04-25T17:06:24.848Z,6.65
2023-04-25T17:08:51.805Z,8.55
2023-04-25T17:11:20.068Z,7.10
2023-04-25T17:13:46.739Z,4.97
2023-04-25T17:16:16.477Z,9.65
2023-04-25T17:18:43.837Z,6.70
2023-04-25T17:21:10.590Z,6.20
2023-04-25T17:23:37.190Z,7.95
2023-04-25T17:26:03.785Z,8.43
2023-04-25T17:28:30.404Z,5.60
2023-04-25T17:30:57.412Z,4.93
2023-04-25T17:33:26.946Z,7.18
2023-04-25T17:35:54.308Z,7.25
2023-04-25T17:38:20.945Z,9.68
2023-04-25T17:40:47.829Z,8.57
2023-04-25T17:43:14.377Z,5.07
2023-04-25T17:45:40.994Z,10.32
2023-04-25T17:48:07.617Z,6.80
2023-04-25T17:50:34.251Z,6.78
2023-04-25T17:53:05.149Z,7.95
2023-04-25T17:55:31.786Z,9.00
2023-04-25T17:57:58.324Z,7.22
2023-04-25T18:00:24.915Z,4.97
2023-04-25T18:02:52.136Z,6.28
2023-04-25T18:05:19.105Z,5.47
2023-04-25T18:07:45.999Z,6.78
2023-04-25T18:10:12.606Z,7.97
2023-04-25T18:12:39.148Z,6.32
2023-04-25T18:15:06.885Z,6.68
2023-04-25T18:17:39.931Z,7.45
2023-04-25T18:20:15.083Z,8.52
2023-04-25T18:22:43.298Z,6.43
2023-04-25T18:25:11.145Z,6.65
2023-04-25T18:27:38.787Z,5.45
2023-04-25T18:30:08.753Z,9.35
2023-04-25T18:32:35.478Z,7.10
2023-04-25T18:35:02.274Z,6.82
2023-04-25T18:37:28.920Z,7.57
2023-04-25T18:39:55.734Z,8.52
2023-04-25T18:42:22.430Z,6.05
2023-04-25T18:44:49.021Z,7.57
2023-04-25T18:47:15.599Z,7.15
2023-04-25T18:49:42.496Z,7.10
2023-04-25T18:52:10.701Z,2.42
2023-04-25T18:54:37.878Z,6.97
2023-04-25T18:57:05.982Z,7.18
2023-04-25T18:59:33.423Z,5.85
2023-04-25T19:02:04.417Z,4.95
2023-04-25T19:04:32.267Z,8.98
2023-04-25T19:06:59.625Z,6.78
2023-04-25T19:09:26.355Z,6.55
2023-04-25T19:11:53.088Z,7.97
2023-04-25T19:14:19.604Z,6.65
2023-04-25T19:16:46.369Z,5.60
2023-04-25T19:19:12.969Z,4.82
2023-04-25T19:21:39.729Z,6.07
2023-04-25T19:24:07.075Z,5.35
2023-04-25T19:26:34.098Z,6.75
2023-04-25T19:29:09.264Z,8.45
2023-04-25T19:31:37.677Z,6.30
2023-04-25T19:34:05.851Z,6.57
2023-04-25T19:36:33.100Z,6.00
2023-04-25T19:39:03.762Z,6.75
2023-04-25T19:41:32.084Z,8.45
2023-04-25T19:44:04.691Z,5.28
2023-04-25T19:46:34.208Z,8.57
2023-04-25T19:49:01.478Z,11.18
2023-04-25T19:51:28.623Z,16.90
2023-04-25T19:53:55.612Z,26.98
2023-04-25T19:56:23.514Z,23.42
2023-04-25T19:58:51.053Z,26.48
2023-04-25T20:01:18.129Z,21.83
2023-04-25T20:03:45.299Z,18.30
2023-04-25T20:06:11.922Z,14.68
2023-04-25T20:08:38.468Z,12.13
2023-04-25T20:11:05.356Z,13.77
2023-04-25T20:13:32.721Z,7.85
2023-04-25T20:16:01.329Z,6.60
2023-04-25T20:18:29.633Z,5.63
2023-04-25T20:20:56.554Z,7.97
2023-04-25T20:23:23.119Z,7.75
2023-04-25T20:25:50.440Z,7.10
2023-04-25T20:28:17.410Z,8.27
2023-04-25T20:30:44.562Z,6.80
2023-04-25T20:33:11.173Z,6.60
2023-04-25T20:35:37.789Z,11.05
2023-04-25T20:38:04.332Z,13.57
2023-04-25T20:40:31.110Z,10.32
2023-04-25T20:42:57.742Z,10.95
2023-04-25T20:45:26.111Z,8.35
2023-04-25T20:47:53.210Z,6.00
2023-04-25T20:50:20.088Z,10.00
2023-04-25T20:52:46.591Z,11.95
2023-04-25T20:55:13.439Z,10.20
2023-04-25T20:57:40.009Z,11.48
2023-04-25T21:00:18.357Z,11.80
2023-04-25T21:02:46.614Z,9.10
2023-04-25T21:05:13.629Z,7.70
2023-04-25T21:07:40.222Z,9.32
2023-04-25T21:10:07.188Z,6.20
2023-04-25T21:12:33.830Z,7.75
2023-04-25T21:15:00.686Z,7.40
2023-04-25T21:17:27.594Z,6.18
2023-04-25T21:19:54.295Z,10.40
2023-04-25T21:22:21.519Z,11.57
2023-04-25T21:24:50.665Z,6.68
2023-04-25T21:27:20.523Z,6.05
2023-04-25T21:29:47.211Z,4.30
2023-04-25T21:32:17.484Z,3.70
2023-04-25T21:34:44.249Z,5.18
2023-04-25T21:37:11.041Z,6.63
2023-04-25T21:39:37.773Z,6.05
2023-04-25T21:42:08.817Z,5.35
2023-04-25T21:44:35.943Z,5.18
2023-04-25T21:47:04.446Z,8.23
2023-04-25T21:49:32.815Z,4.20
2023-04-25T21:51:59.923Z,5.30
2023-04-25T21:54:27.072Z,4.93
2023-04-25T21:56:53.857Z,4.25
2023-04-25T21:59:23.194Z,4.40
2023-04-25T22:01:49.984Z,10.30
2023-04-25T22:04:17.138Z,6.50
2023-04-25T22:06:43.961Z,4.05
2023-04-25T22:09:10.564Z,4.97
2023-04-25T22:11:37.127Z,6.68
2023-04-25T22:14:03.726Z,7.32
2023-04-25T22:16:30.384Z,8.00
2023-04-25T22:18:56.962Z,9.50
2023-04-25T22:21:24.376Z,10.73
2023-04-25T22:23:52.686Z,7.63
2023-04-25T22:26:20.398Z,9.25
2023-04-25T22:28:47.200Z,5.10
2023-04-25T22:31:14.329Z,5.68
2023-04-25T22:33:41.367Z,6.65
2023-04-25T22:36:08.909Z,7.63
2023-04-25T22:38:35.825Z,8.57
2023-04-25T22:41:02.340Z,11.00
2023-04-25T22:43:29.376Z,7.45
2023-04-25T22:45:56.824Z,5.50
2023-04-25T22:48:23.404Z,9.32
2023-04-25T22:50:51.056Z,8.73
2023-04-25T22:53:17.641Z,8.20
2023-04-25T22:55:44.342Z,6.65
2023-04-25T22:58:10.948Z,6.45
2023-04-25T23:00:37.632Z,7.03
2023-04-25T23:03:04.923Z,6.75
2023-04-25T23:05:32.827Z,5.97
2023-04-25T23:07:59.944Z,6.10
2023-04-25T23:10:28.042Z,6.60
2023-04-25T23:12:57.332Z,11.20
2023-04-25T23:15:26.392Z,7.05
2023-04-25T23:17:53.393Z,8.68
2023-04-25T23:20:21.033Z,6.57
2023-04-25T23:22:47.880Z,9.55
2023-04-25T23:25:14.907Z,8.25
2023-04-25T23:27:42.362Z,8.40
2023-04-25T23:30:10.401Z,6.15
2023-04-25T23:32:37.903Z,6.68
2023-04-25T23:35:05.457Z,10.25
2023-04-25T23:37:38.612Z,6.28
2023-04-25T23:40:12.749Z,6.93
2023-04-25T23:42:41.106Z,6.15
2023-04-25T23:45:08.883Z,8.40
2023-04-25T23:47:36.130Z,5.97
2023-04-25T23:50:03.604Z,7.22
2023-04-25T23:52:30.297Z,6.63
2023-04-25T23:54:56.889Z,5.63
2023-04-25T23:57:23.459Z,7.38
2023-04-25T23:59:50.154Z,5.82
